Port Wentworth, Georgia
Current Conditions -  °F | °C
As of 3:53 PM on Thursday 18 Dec 2014 (Local Time) from KSAV Reporting Station
Broken Clouds Broken Clouds  
Wind Chill: 63°   Ceiling: 25000
Heat Index: 63°   Visibility: 10mi
Dew Point: 36°   Wind: 0mph
Humidity: 37%   Direction: NA
Pressure: 30.07"   Gusts: NA
Location:  32.1492°N, 81.1685°W
Report Text: KSAV 182053Z 00000KT 10SM BKN250 17/02 A3007 RMK AO2 SLP183 T01720022
Loading
Personal Weather Stations






























Interactive Weather Map New forecast layout! Learn more

10-Day Weather Forecast

Advertisements
Track Severe Weather on mobile